createdAt,value
2022-11-20T00:01:37.594Z,73.40
2022-11-20T00:04:05.670Z,73.50
2022-11-20T00:06:34.905Z,73.60
2022-11-20T00:09:05.626Z,73.60
2022-11-20T00:11:37.186Z,73.70
2022-11-20T00:14:05.657Z,73.90
2022-11-20T00:16:37.555Z,73.80
2022-11-20T00:19:08.470Z,73.50
2022-11-20T00:21:37.619Z,73.60
2022-11-20T00:24:11.265Z,73.50
2022-11-20T00:26:39.418Z,73.80
2022-11-20T00:31:36.949Z,73.60
2022-11-20T00:34:04.790Z,73.50
2022-11-20T00:36:40.252Z,73.50
2022-11-20T00:39:10.262Z,73.40
2022-11-20T00:41:38.133Z,73.40
2022-11-20T00:44:06.217Z,73.50
2022-11-20T00:46:34.063Z,73.60
2022-11-20T00:51:30.137Z,73.40
2022-11-20T00:54:00.945Z,73.40
2022-11-20T00:56:28.954Z,73.40
2022-11-20T00:58:56.958Z,73.40
2022-11-20T01:01:27.680Z,73.50
2022-11-20T01:03:58.100Z,73.60
2022-11-20T01:06:27.496Z,73.60
2022-11-20T01:08:58.063Z,73.80
2022-11-20T01:11:29.627Z,73.80
2022-11-20T01:13:59.367Z,73.90
2022-11-20T01:16:29.730Z,73.90
2022-11-20T01:19:00.462Z,74.00
2022-11-20T01:21:30.217Z,73.90
2022-11-20T01:23:58.869Z,73.90
2022-11-20T01:26:30.503Z,73.90
2022-11-20T01:28:58.906Z,73.70
2022-11-20T01:31:29.866Z,73.60
2022-11-20T01:34:00.062Z,73.70
2022-11-20T01:36:29.934Z,73.90
2022-11-20T01:39:01.323Z,73.50
2022-11-20T01:41:49.474Z,76.50
2022-11-20T01:44:19.800Z,73.50
2022-11-20T01:46:57.330Z,73.40
2022-11-20T01:49:44.855Z,73.30
2022-11-20T01:52:23.485Z,73.20
2022-11-20T01:54:58.041Z,73.30
2022-11-20T01:57:31.740Z,73.20
2022-11-20T02:00:06.789Z,73.30
2022-11-20T02:02:34.925Z,73.30
2022-11-20T02:05:12.517Z,73.20
2022-11-20T02:07:40.807Z,73.50
2022-11-20T02:10:09.361Z,73.40
2022-11-20T02:12:56.052Z,73.80
2022-11-20T02:15:27.603Z,73.60
2022-11-20T02:17:58.439Z,73.50
2022-11-20T02:20:26.279Z,73.60
2022-11-20T02:23:01.103Z,73.60
2022-11-20T02:25:34.868Z,73.60
2022-11-20T02:28:02.941Z,73.60
2022-11-20T02:30:30.719Z,73.50
2022-11-20T02:33:01.397Z,73.60
2022-11-20T02:35:45.263Z,73.50
2022-11-20T02:38:15.882Z,73.50
2022-11-20T02:40:45.428Z,73.40
2022-11-20T02:43:13.471Z,73.50
2022-11-20T02:45:41.431Z,73.70
2022-11-20T02:48:09.819Z,73.50
2022-11-20T02:50:40.788Z,73.50
2022-11-20T02:53:17.170Z,73.40
2022-11-20T02:55:46.293Z,73.60
2022-11-20T02:58:20.001Z,73.80
2022-11-20T03:00:50.453Z,73.60
2022-11-20T03:03:18.313Z,73.50
2022-11-20T03:05:50.502Z,73.30
2022-11-20T03:08:18.294Z,73.20
2022-11-20T03:10:47.485Z,73.20
2022-11-20T03:13:15.315Z,73.10
2022-11-20T03:15:43.193Z,72.90
2022-11-20T03:18:14.514Z,73.00
2022-11-20T03:20:42.309Z,73.00
2022-11-20T03:25:38.178Z,73.10
2022-11-20T03:28:10.083Z,73.00
2022-11-20T03:33:05.979Z,73.00
2022-11-20T03:35:36.569Z,73.20
2022-11-20T03:38:07.230Z,73.30
2022-11-20T03:40:39.238Z,73.40
2022-11-20T03:45:42.184Z,73.50
2022-11-20T03:50:40.378Z,73.40
2022-11-20T03:53:09.990Z,73.10
2022-11-20T03:55:37.720Z,73.20
2022-11-20T04:00:36.484Z,73.00
2022-11-20T04:03:05.892Z,73.20
2022-11-20T04:05:35.212Z,73.20
2022-11-20T04:08:03.138Z,73.30
2022-11-20T04:10:30.882Z,73.30
2022-11-20T04:12:58.686Z,73.20
2022-11-20T04:15:26.439Z,73.40
2022-11-20T04:17:54.246Z,73.30
2022-11-20T04:20:23.334Z,73.30
2022-11-20T04:22:51.055Z,73.40
2022-11-20T04:25:19.098Z,73.40
2022-11-20T04:30:15.527Z,73.40
2022-11-20T04:32:43.273Z,73.50
2022-11-20T04:35:14.652Z,73.40
2022-11-20T04:37:43.793Z,73.60
2022-11-20T04:40:12.509Z,73.50
2022-11-20T04:42:40.265Z,73.60
2022-11-20T04:45:09.993Z,73.50
2022-11-20T04:47:37.781Z,73.70
2022-11-20T04:50:07.901Z,73.50
2022-11-20T04:52:35.771Z,73.60
2022-11-20T04:55:05.628Z,73.60
2022-11-20T04:57:33.430Z,73.50
2022-11-20T05:02:15.864Z,73.60
2022-11-20T05:04:43.717Z,73.50
2022-11-20T05:07:11.603Z,73.40
2022-11-20T05:09:39.538Z,73.20
2022-11-20T05:12:12.230Z,72.90
2022-11-20T05:14:39.976Z,72.80
2022-11-20T05:17:11.637Z,72.80
2022-11-20T05:19:42.053Z,72.90
2022-11-20T05:22:13.877Z,72.90
2022-11-20T05:24:48.091Z,72.70
2022-11-20T05:29:44.069Z,72.80
2022-11-20T05:32:14.725Z,72.90
2022-11-20T05:34:49.388Z,73.20
2022-11-20T05:39:46.507Z,73.40
2022-11-20T05:45:01.765Z,73.70
2022-11-20T05:47:33.042Z,73.60
2022-11-20T05:50:03.769Z,73.80
2022-11-20T05:52:33.739Z,73.60
2022-11-20T05:55:01.542Z,73.30
2022-11-20T05:57:32.014Z,73.40
2022-11-20T06:04:58.732Z,72.80
2022-11-20T06:07:31.723Z,72.60
2022-11-20T06:10:01.945Z,72.60
2022-11-20T06:15:04.935Z,72.60
2022-11-20T06:17:38.485Z,72.60
2022-11-20T06:20:07.417Z,72.60
2022-11-20T06:22:38.987Z,72.50
2022-11-20T06:25:09.809Z,72.70
2022-11-20T06:30:06.677Z,73.10
2022-11-20T06:32:35.290Z,73.20
2022-11-20T06:35:10.146Z,73.30
2022-11-20T06:37:42.361Z,73.20
2022-11-20T06:40:11.819Z,73.30
2022-11-20T06:45:08.719Z,73.40
2022-11-20T06:50:05.040Z,73.50
2022-11-20T06:52:32.851Z,73.70
2022-11-20T06:55:02.053Z,73.80
2022-11-20T06:57:31.950Z,73.90
2022-11-20T06:59:59.696Z,73.80
2022-11-20T07:02:27.506Z,73.80
2022-11-20T07:07:30.173Z,73.90
2022-11-20T07:12:30.108Z,74.00
2022-11-20T07:14:57.862Z,74.00
2022-11-20T07:17:28.254Z,74.00
2022-11-20T07:19:56.023Z,74.20
2022-11-20T07:22:28.199Z,74.20
2022-11-20T07:24:59.695Z,74.20
2022-11-20T07:27:28.835Z,74.40
2022-11-20T07:29:58.089Z,74.40
2022-11-20T07:35:06.727Z,74.30
2022-11-20T07:37:36.262Z,74.50
2022-11-20T07:40:04.429Z,74.50
2022-11-20T07:42:33.540Z,74.60
2022-11-20T07:45:03.129Z,74.80
2022-11-20T07:47:30.926Z,74.90
2022-11-20T07:49:58.802Z,75.10
2022-11-20T07:52:28.514Z,75.30
2022-11-20T07:55:02.451Z,75.40
2022-11-20T08:00:00.326Z,75.50
2022-11-20T08:02:28.789Z,75.60
2022-11-20T08:04:56.582Z,75.70
2022-11-20T08:07:24.513Z,75.80
2022-11-20T08:09:55.119Z,75.90
2022-11-20T08:12:41.098Z,75.90
2022-11-20T08:15:14.138Z,76.20
2022-11-20T08:17:41.985Z,76.40
2022-11-20T08:20:12.092Z,76.40
2022-11-20T08:22:39.841Z,76.50
2022-11-20T08:25:08.419Z,76.60
2022-11-20T08:30:11.416Z,76.70
2022-11-20T08:32:40.559Z,76.70
2022-11-20T08:35:14.674Z,76.90
2022-11-20T08:37:42.923Z,76.90
2022-11-20T08:40:16.984Z,77.10
2022-11-20T08:42:50.770Z,77.40
2022-11-20T08:45:20.165Z,77.50
2022-11-20T08:50:32.931Z,77.90
2022-11-20T08:53:05.330Z,77.90
2022-11-20T08:55:36.014Z,77.90
2022-11-20T08:58:08.594Z,78.00
2022-11-20T09:00:37.990Z,78.10
2022-11-20T09:03:09.461Z,78.20
2022-11-20T09:05:37.229Z,78.30
2022-11-20T09:08:07.752Z,78.40
2022-11-20T09:10:41.510Z,78.50
2022-11-20T09:13:10.705Z,78.50
2022-11-20T09:15:38.500Z,78.70
2022-11-20T09:18:07.599Z,78.80
2022-11-20T09:20:38.062Z,79.10
2022-11-20T09:23:05.950Z,79.20
2022-11-20T09:25:33.812Z,79.10
2022-11-20T09:28:06.939Z,79.40
2022-11-20T09:30:35.503Z,79.50
2022-11-20T09:33:05.198Z,79.60
2022-11-20T09:35:34.427Z,79.70
2022-11-20T09:38:07.242Z,79.90
2022-11-20T09:40:37.302Z,80.00
2022-11-20T09:43:13.514Z,80.30
2022-11-20T09:45:56.630Z,80.40
2022-11-20T09:48:43.181Z,80.70
2022-11-20T09:51:28.162Z,80.70
2022-11-20T09:54:08.329Z,80.90
2022-11-20T09:56:38.433Z,81.00
2022-11-20T09:59:16.442Z,81.00
2022-11-20T10:01:45.642Z,81.00
2022-11-20T10:04:18.797Z,81.20
2022-11-20T10:07:30.756Z,81.40
2022-11-20T10:09:52.891Z,81.40
2022-11-20T10:12:29.717Z,81.50
2022-11-20T10:15:14.734Z,81.60
2022-11-20T10:18:23.541Z,81.90
2022-11-20T10:21:02.915Z,81.90
2022-11-20T10:23:49.862Z,82.10
2022-11-20T10:26:23.623Z,82.20
2022-11-20T10:29:08.484Z,82.20
2022-11-20T10:31:40.184Z,82.50
2022-11-20T10:34:22.456Z,82.50
2022-11-20T10:36:56.568Z,82.70
2022-11-20T10:39:32.272Z,82.80
2022-11-20T10:42:01.507Z,82.90
2022-11-20T10:44:52.555Z,83.10
2022-11-20T10:47:26.711Z,83.20
2022-11-20T10:50:00.846Z,83.30
2022-11-20T10:52:38.877Z,83.60
2022-11-20T10:55:39.153Z,83.70
2022-11-20T10:58:15.525Z,83.80
2022-11-20T11:03:25.023Z,83.90
2022-11-20T11:05:58.546Z,84.00
2022-11-20T11:08:30.853Z,84.00
2022-11-20T11:11:20.203Z,84.10
2022-11-20T11:13:48.047Z,84.40
2022-11-20T11:16:24.018Z,84.40
2022-11-20T11:21:26.975Z,84.40
2022-11-20T11:24:19.588Z,84.40
2022-11-20T11:26:59.649Z,84.30
2022-11-20T11:29:44.464Z,84.20
2022-11-20T11:32:15.813Z,84.40
2022-11-20T11:34:46.386Z,84.20
2022-11-20T11:37:24.183Z,84.50
2022-11-20T11:40:22.398Z,85.00
2022-11-20T11:42:45.403Z,84.30
2022-11-20T11:45:15.739Z,84.40
2022-11-20T11:47:48.515Z,84.50
2022-11-20T11:50:20.186Z,84.70
2022-11-20T11:52:54.590Z,84.70
2022-11-20T11:55:33.486Z,84.80
2022-11-20T11:58:13.719Z,85.00
2022-11-20T12:00:49.293Z,85.20
2022-11-20T12:03:24.841Z,85.20
2022-11-20T12:05:59.706Z,85.10
2022-11-20T12:08:33.521Z,85.30
2022-11-20T12:11:08.527Z,85.50
2022-11-20T12:13:50.894Z,85.70
2022-11-20T12:16:21.253Z,85.70
2022-11-20T12:18:51.441Z,85.60
2022-11-20T12:21:22.458Z,85.70
2022-11-20T12:24:04.422Z,85.70
2022-11-20T12:26:50.016Z,85.50
2022-11-20T12:29:25.644Z,85.20
2022-11-20T12:32:06.622Z,85.20
2022-11-20T12:34:49.438Z,85.30
2022-11-20T12:37:31.481Z,85.30
2022-11-20T12:40:05.323Z,85.30
2022-11-20T12:43:09.358Z,85.50
2022-11-20T12:46:13.642Z,85.30
2022-11-20T12:49:04.935Z,85.40
2022-11-20T12:51:50.215Z,85.50
2022-11-20T12:54:52.564Z,85.50
2022-11-20T12:57:26.622Z,85.60
2022-11-20T13:00:10.841Z,85.70
2022-11-20T13:03:02.885Z,85.90
2022-11-20T13:05:38.933Z,85.80
2022-11-20T13:08:17.074Z,86.10
2022-11-20T13:10:51.465Z,86.10
2022-11-20T13:13:27.961Z,86.50
2022-11-20T13:16:01.336Z,86.70
2022-11-20T13:18:39.975Z,86.40
2022-11-20T13:21:17.193Z,86.20
2022-11-20T13:23:47.732Z,86.10
2022-11-20T13:26:19.485Z,86.30
2022-11-20T13:28:49.478Z,86.50
2022-11-20T13:31:34.644Z,86.70
2022-11-20T13:34:07.726Z,86.70
2022-11-20T13:36:37.457Z,87.00
2022-11-20T13:39:05.337Z,87.00
2022-11-20T13:41:36.126Z,87.10
2022-11-20T13:44:18.448Z,86.90
2022-11-20T13:46:47.931Z,86.70
2022-11-20T13:49:24.587Z,86.90
2022-11-20T13:51:57.681Z,87.00
2022-11-20T13:54:57.804Z,87.10
2022-11-20T13:57:44.971Z,87.00
2022-11-20T14:00:18.680Z,87.10
2022-11-20T14:03:03.163Z,87.30
2022-11-20T14:05:36.734Z,87.50
2022-11-20T14:08:07.051Z,87.10
2022-11-20T14:10:34.811Z,87.30
2022-11-20T14:13:13.256Z,87.50
2022-11-20T14:15:44.872Z,87.60
2022-11-20T14:18:15.318Z,87.50
2022-11-20T14:20:45.182Z,87.70
2022-11-20T14:23:14.473Z,87.60
2022-11-20T14:25:44.915Z,87.50
2022-11-20T14:28:24.198Z,87.70
2022-11-20T14:33:28.177Z,87.90
2022-11-20T14:36:00.800Z,88.00
2022-11-20T14:38:30.708Z,88.00
2022-11-20T14:41:08.569Z,88.00
2022-11-20T14:43:38.592Z,88.10
2022-11-20T14:46:09.387Z,88.30
2022-11-20T14:48:41.627Z,88.40
2022-11-20T14:51:12.738Z,88.20
2022-11-20T14:53:40.579Z,88.30
2022-11-20T14:56:12.315Z,88.30
2022-11-20T14:58:40.184Z,88.20
2022-11-20T15:01:14.255Z,88.20
2022-11-20T15:06:29.316Z,88.30
2022-11-20T15:11:31.549Z,88.60
2022-11-20T15:14:04.350Z,88.50
2022-11-20T15:16:38.590Z,88.50
2022-11-20T15:19:18.729Z,88.60
2022-11-20T15:21:47.803Z,88.80
2022-11-20T15:24:15.588Z,88.90
2022-11-20T15:29:13.830Z,88.90
2022-11-20T15:34:14.066Z,88.80
2022-11-20T15:36:44.964Z,88.90
2022-11-20T15:39:14.070Z,89.10
2022-11-20T15:46:42.362Z,89.50
2022-11-20T15:49:16.985Z,89.70
2022-11-20T15:51:50.002Z,89.90
2022-11-20T15:54:22.095Z,90.00
2022-11-20T15:56:50.477Z,90.10
2022-11-20T15:59:18.827Z,90.10
2022-11-20T16:01:46.695Z,90.20
2022-11-20T16:04:15.872Z,90.30
2022-11-20T16:06:44.185Z,90.30
2022-11-20T16:11:44.776Z,90.40
2022-11-20T16:14:30.196Z,90.50
2022-11-20T16:17:00.685Z,90.60
2022-11-20T16:19:28.490Z,90.60
2022-11-20T16:22:02.246Z,90.60
2022-11-20T16:24:36.329Z,90.70
2022-11-20T16:27:11.393Z,90.60
2022-11-20T16:29:39.162Z,90.70
2022-11-20T16:34:35.045Z,90.70
2022-11-20T16:37:04.917Z,90.80
2022-11-20T16:39:32.692Z,90.90
2022-11-20T16:42:00.575Z,90.90
2022-11-20T16:44:29.657Z,90.90
2022-11-20T16:46:57.697Z,90.90
2022-11-20T16:49:26.109Z,90.90
2022-11-20T16:51:54.984Z,90.90
2022-11-20T16:54:23.477Z,91.00
2022-11-20T16:56:53.391Z,90.90
2022-11-20T16:59:21.220Z,91.00
2022-11-20T17:01:50.793Z,91.00
2022-11-20T17:04:18.799Z,91.00
2022-11-20T17:06:47.795Z,91.00
2022-11-20T17:09:15.781Z,91.10
2022-11-20T17:14:12.593Z,91.10
2022-11-20T17:16:40.432Z,91.20
2022-11-20T17:19:09.806Z,91.00
2022-11-20T17:21:38.147Z,91.10
2022-11-20T17:24:08.466Z,91.10
2022-11-20T17:26:37.349Z,91.10
2022-11-20T17:29:07.433Z,91.10
2022-11-20T17:31:38.558Z,91.10
2022-11-20T17:34:07.378Z,91.00
2022-11-20T17:36:40.719Z,91.10
2022-11-20T17:39:12.192Z,91.10
2022-11-20T17:41:40.007Z,91.10
2022-11-20T17:44:10.597Z,91.10
2022-11-20T17:46:38.825Z,91.00
2022-11-20T17:49:09.344Z,91.10
2022-11-20T17:51:38.506Z,91.00
2022-11-20T17:54:08.271Z,91.10
2022-11-20T17:56:54.790Z,91.00
2022-11-20T18:01:51.149Z,90.90
2022-11-20T18:04:19.050Z,90.90
2022-11-20T18:06:50.995Z,90.90
2022-11-20T18:09:18.759Z,90.90
2022-11-20T18:11:46.562Z,90.90
2022-11-20T18:14:34.306Z,90.90
2022-11-20T18:17:04.069Z,90.80
2022-11-20T18:19:34.797Z,90.80
2022-11-20T18:22:08.966Z,90.80
2022-11-20T18:24:37.271Z,90.90
2022-11-20T18:27:05.715Z,90.80
2022-11-20T18:29:33.943Z,90.90
2022-11-20T18:32:03.948Z,90.80
2022-11-20T18:37:00.060Z,90.80
2022-11-20T18:39:29.387Z,90.90
2022-11-20T18:42:14.549Z,90.80
2022-11-20T18:44:52.041Z,90.90
2022-11-20T18:47:21.623Z,90.80
2022-11-20T18:49:52.508Z,90.80
2022-11-20T18:52:22.747Z,90.80
2022-11-20T18:54:52.412Z,90.80
2022-11-20T19:02:19.960Z,90.80
2022-11-20T19:04:50.175Z,90.80
2022-11-20T19:07:18.319Z,90.80
2022-11-20T19:09:49.404Z,90.90
2022-11-20T19:12:19.397Z,90.80
2022-11-20T19:14:47.333Z,90.80
2022-11-20T19:17:27.493Z,90.70
2022-11-20T19:19:55.323Z,90.70
2022-11-20T19:24:56.522Z,90.70
2022-11-20T19:27:30.172Z,90.70
2022-11-20T19:32:31.059Z,90.70
2022-11-20T19:34:58.821Z,90.70
2022-11-20T19:37:26.546Z,90.70
2022-11-20T19:39:59.519Z,90.70
2022-11-20T19:42:28.647Z,90.70
2022-11-20T19:44:58.128Z,90.70
2022-11-20T19:47:46.063Z,90.70
2022-11-20T19:52:52.018Z,90.70
2022-11-20T19:57:52.989Z,90.70
2022-11-20T20:00:29.698Z,90.70
2022-11-20T20:03:00.418Z,90.70
2022-11-20T20:05:28.197Z,90.70
2022-11-20T20:10:26.674Z,90.70
2022-11-20T20:13:00.354Z,90.80
2022-11-20T20:15:28.173Z,90.70
2022-11-20T20:20:24.373Z,90.80
2022-11-20T20:25:23.071Z,90.70
2022-11-20T20:27:54.657Z,90.60
2022-11-20T20:30:22.597Z,90.70
2022-11-20T20:32:56.457Z,90.70
2022-11-20T20:35:24.586Z,90.70
2022-11-20T20:38:01.537Z,90.60
2022-11-20T20:42:58.749Z,90.60
2022-11-20T20:45:26.545Z,90.60
2022-11-20T20:48:00.546Z,90.60
2022-11-20T20:50:31.209Z,90.60
2022-11-20T20:53:01.961Z,90.60
2022-11-20T20:55:29.758Z,90.60
2022-11-20T20:57:58.910Z,90.50
2022-11-20T21:00:28.600Z,90.50
2022-11-20T21:05:24.793Z,90.50
2022-11-20T21:08:11.399Z,90.50
2022-11-20T21:10:41.321Z,90.60
2022-11-20T21:13:13.138Z,90.60
2022-11-20T21:15:41.136Z,90.50
2022-11-20T21:18:11.090Z,90.60
2022-11-20T21:20:57.860Z,90.60
2022-11-20T21:23:25.769Z,90.60
2022-11-20T21:25:53.623Z,90.60
2022-11-20T21:28:22.982Z,90.60
2022-11-20T21:38:17.502Z,90.60
2022-11-20T21:40:45.382Z,90.50
2022-11-20T21:43:15.913Z,90.60
2022-11-20T21:45:45.094Z,90.60
2022-11-20T21:48:12.869Z,90.60
2022-11-20T21:50:40.686Z,90.60
2022-11-20T21:53:08.465Z,90.50
2022-11-20T21:57:49.838Z,90.60
2022-11-20T22:00:18.262Z,90.50
2022-11-20T22:02:46.151Z,90.50
2022-11-20T22:05:14.030Z,90.50
2022-11-20T22:07:47.320Z,90.40
2022-11-20T22:10:18.421Z,90.50
2022-11-20T22:12:46.592Z,90.50
2022-11-20T22:15:20.389Z,90.50
2022-11-20T22:20:26.245Z,90.40
2022-11-20T22:22:56.731Z,90.50
2022-11-20T22:25:24.474Z,90.40
2022-11-20T22:30:22.716Z,90.30
2022-11-20T22:32:53.973Z,90.40
2022-11-20T22:35:21.742Z,90.30
2022-11-20T22:37:51.244Z,90.40
2022-11-20T22:40:20.397Z,90.30
2022-11-20T22:42:48.474Z,90.30
2022-11-20T22:45:16.570Z,90.40
2022-11-20T22:47:44.344Z,90.30
2022-11-20T22:50:12.142Z,90.30
2022-11-20T22:52:39.918Z,90.40
2022-11-20T22:55:15.981Z,90.30
2022-11-20T22:57:47.145Z,90.30
2022-11-20T23:00:15.989Z,90.30
2022-11-20T23:02:45.163Z,90.30
2022-11-20T23:05:12.918Z,90.30
2022-11-20T23:10:11.300Z,90.30
2022-11-20T23:12:39.149Z,90.40
2022-11-20T23:15:14.769Z,90.40
2022-11-20T23:17:42.702Z,90.50
2022-11-20T23:20:13.550Z,90.40
2022-11-20T23:25:16.366Z,90.40
2022-11-20T23:30:13.057Z,90.30
2022-11-20T23:32:40.781Z,90.30
2022-11-20T23:37:36.927Z,90.30
2022-11-20T23:42:34.661Z,90.30
2022-11-20T23:45:06.587Z,90.20
2022-11-20T23:47:34.311Z,90.30
2022-11-20T23:52:32.444Z,90.20
2022-11-20T23:55:00.303Z,90.30
2022-11-20T23:57:40.973Z,90.20
